sensor_id;sensor_type;location;lat;lon;timestamp;P1;durP1;ratioP1;P2;durP2;ratioP2
51883;SDS011;37915;53.254;6.598;2023-08-21T00:01:43;10.35;;;2.88;;
51883;SDS011;37915;53.254;6.598;2023-08-21T00:04:09;7.95;;;2.63;;
51883;SDS011;37915;53.254;6.598;2023-08-21T00:06:35;8.90;;;2.90;;
51883;SDS011;37915;53.254;6.598;2023-08-21T00:09:02;10.48;;;3.28;;
51883;SDS011;37915;53.254;6.598;2023-08-21T00:11:28;9.13;;;3.20;;
51883;SDS011;37915;53.254;6.598;2023-08-21T00:13:54;9.75;;;2.58;;
51883;SDS011;37915;53.254;6.598;2023-08-21T00:16:20;10.02;;;2.85;;
51883;SDS011;37915;53.254;6.598;2023-08-21T00:18:46;5.15;;;2.10;;
51883;SDS011;37915;53.254;6.598;2023-08-21T00:21:12;14.50;;;3.60;;
51883;SDS011;37915;53.254;6.598;2023-08-21T00:23:38;7.97;;;2.50;;
51883;SDS011;37915;53.254;6.598;2023-08-21T00:26:04;6.10;;;2.35;;
51883;SDS011;37915;53.254;6.598;2023-08-21T00:28:30;9.55;;;2.38;;
51883;SDS011;37915;53.254;6.598;2023-08-21T00:31:04;11.13;;;2.38;;
51883;SDS011;37915;53.254;6.598;2023-08-21T00:33:31;5.60;;;2.28;;
51883;SDS011;37915;53.254;6.598;2023-08-21T00:35:57;4.60;;;1.95;;
51883;SDS011;37915;53.254;6.598;2023-08-21T00:38:23;6.65;;;2.08;;
51883;SDS011;37915;53.254;6.598;2023-08-21T00:40:49;6.70;;;2.72;;
51883;SDS011;37915;53.254;6.598;2023-08-21T00:43:16;5.85;;;2.50;;
51883;SDS011;37915;53.254;6.598;2023-08-21T00:45:42;7.93;;;2.25;;
51883;SDS011;37915;53.254;6.598;2023-08-21T00:48:09;9.13;;;2.40;;
51883;SDS011;37915;53.254;6.598;2023-08-21T00:50:37;5.57;;;2.50;;
51883;SDS011;37915;53.254;6.598;2023-08-21T00:53:03;7.90;;;2.80;;
51883;SDS011;37915;53.254;6.598;2023-08-21T00:55:30;7.53;;;2.60;;
51883;SDS011;37915;53.254;6.598;2023-08-21T00:57:56;9.50;;;3.17;;
51883;SDS011;37915;53.254;6.598;2023-08-21T01:00:23;7.00;;;3.63;;
51883;SDS011;37915;53.254;6.598;2023-08-21T01:02:50;10.90;;;3.20;;
51883;SDS011;37915;53.254;6.598;2023-08-21T01:05:17;7.32;;;3.10;;
51883;SDS011;37915;53.254;6.598;2023-08-21T01:07:56;9.27;;;3.33;;
51883;SDS011;37915;53.254;6.598;2023-08-21T01:10:27;7.55;;;3.05;;
51883;SDS011;37915;53.254;6.598;2023-08-21T01:12:57;8.52;;;3.08;;
51883;SDS011;37915;53.254;6.598;2023-08-21T01:15:27;8.70;;;3.40;;
51883;SDS011;37915;53.254;6.598;2023-08-21T01:17:54;7.18;;;3.22;;
51883;SDS011;37915;53.254;6.598;2023-08-21T01:20:20;8.18;;;3.15;;
51883;SDS011;37915;53.254;6.598;2023-08-21T01:22:47;12.48;;;3.50;;
51883;SDS011;37915;53.254;6.598;2023-08-21T01:25:13;11.75;;;3.05;;
51883;SDS011;37915;53.254;6.598;2023-08-21T01:27:42;7.50;;;3.10;;
51883;SDS011;37915;53.254;6.598;2023-08-21T01:30:08;8.85;;;3.25;;
51883;SDS011;37915;53.254;6.598;2023-08-21T01:35:03;6.28;;;2.97;;
51883;SDS011;37915;53.254;6.598;2023-08-21T01:37:30;8.55;;;3.13;;
51883;SDS011;37915;53.254;6.598;2023-08-21T01:40:00;11.40;;;3.05;;
51883;SDS011;37915;53.254;6.598;2023-08-21T01:42:26;4.93;;;1.73;;
51883;SDS011;37915;53.254;6.598;2023-08-21T01:44:52;8.77;;;1.88;;
51883;SDS011;37915;53.254;6.598;2023-08-21T01:47:18;5.90;;;1.80;;
51883;SDS011;37915;53.254;6.598;2023-08-21T01:49:44;4.97;;;1.65;;
51883;SDS011;37915;53.254;6.598;2023-08-21T01:52:10;5.00;;;1.90;;
51883;SDS011;37915;53.254;6.598;2023-08-21T01:54:36;4.95;;;1.88;;
51883;SDS011;37915;53.254;6.598;2023-08-21T01:57:02;5.07;;;1.50;;
51883;SDS011;37915;53.254;6.598;2023-08-21T01:59:28;6.35;;;1.70;;
51883;SDS011;37915;53.254;6.598;2023-08-21T02:01:54;6.97;;;2.28;;
51883;SDS011;37915;53.254;6.598;2023-08-21T02:04:20;7.85;;;2.20;;
51883;SDS011;37915;53.254;6.598;2023-08-21T02:06:46;6.63;;;2.60;;
51883;SDS011;37915;53.254;6.598;2023-08-21T02:09:12;7.53;;;2.83;;
51883;SDS011;37915;53.254;6.598;2023-08-21T02:11:38;11.40;;;2.75;;
51883;SDS011;37915;53.254;6.598;2023-08-21T02:14:04;7.07;;;2.60;;
51883;SDS011;37915;53.254;6.598;2023-08-21T02:16:31;6.75;;;2.90;;
51883;SDS011;37915;53.254;6.598;2023-08-21T02:18:57;7.88;;;2.70;;
51883;SDS011;37915;53.254;6.598;2023-08-21T02:21:24;7.72;;;2.63;;
51883;SDS011;37915;53.254;6.598;2023-08-21T02:23:50;10.48;;;3.60;;
51883;SDS011;37915;53.254;6.598;2023-08-21T02:26:16;10.73;;;3.70;;
51883;SDS011;37915;53.254;6.598;2023-08-21T02:28:44;9.63;;;3.70;;
51883;SDS011;37915;53.254;6.598;2023-08-21T02:31:11;11.13;;;3.10;;
51883;SDS011;37915;53.254;6.598;2023-08-21T02:33:38;8.38;;;3.10;;
51883;SDS011;37915;53.254;6.598;2023-08-21T02:36:04;9.38;;;3.20;;
51883;SDS011;37915;53.254;6.598;2023-08-21T02:38:32;10.43;;;3.33;;
51883;SDS011;37915;53.254;6.598;2023-08-21T02:40:58;6.22;;;2.90;;
51883;SDS011;37915;53.254;6.598;2023-08-21T02:43:24;11.77;;;3.40;;
51883;SDS011;37915;53.254;6.598;2023-08-21T02:45:50;7.40;;;3.53;;
51883;SDS011;37915;53.254;6.598;2023-08-21T02:48:16;8.20;;;3.38;;
51883;SDS011;37915;53.254;6.598;2023-08-21T02:50:42;7.40;;;3.30;;
51883;SDS011;37915;53.254;6.598;2023-08-21T02:53:08;8.57;;;3.50;;
51883;SDS011;37915;53.254;6.598;2023-08-21T02:55:34;6.50;;;3.22;;
51883;SDS011;37915;53.254;6.598;2023-08-21T02:58:00;8.70;;;3.33;;
51883;SDS011;37915;53.254;6.598;2023-08-21T03:00:26;9.38;;;3.58;;
51883;SDS011;37915;53.254;6.598;2023-08-21T03:02:52;7.85;;;3.67;;
51883;SDS011;37915;53.254;6.598;2023-08-21T03:05:18;7.55;;;3.55;;
51883;SDS011;37915;53.254;6.598;2023-08-21T03:07:44;7.47;;;3.22;;
51883;SDS011;37915;53.254;6.598;2023-08-21T03:10:11;13.55;;;3.90;;
51883;SDS011;37915;53.254;6.598;2023-08-21T03:12:37;10.70;;;3.60;;
51883;SDS011;37915;53.254;6.598;2023-08-21T03:15:03;7.63;;;3.40;;
51883;SDS011;37915;53.254;6.598;2023-08-21T03:17:29;7.72;;;3.25;;
51883;SDS011;37915;53.254;6.598;2023-08-21T03:19:55;9.85;;;2.90;;
51883;SDS011;37915;53.254;6.598;2023-08-21T03:22:21;6.50;;;2.83;;
51883;SDS011;37915;53.254;6.598;2023-08-21T03:24:47;6.13;;;2.80;;
51883;SDS011;37915;53.254;6.598;2023-08-21T03:27:17;6.55;;;3.17;;
51883;SDS011;37915;53.254;6.598;2023-08-21T03:29:43;9.57;;;3.15;;
51883;SDS011;37915;53.254;6.598;2023-08-21T03:32:15;8.57;;;2.93;;
51883;SDS011;37915;53.254;6.598;2023-08-21T03:34:41;8.90;;;2.70;;
51883;SDS011;37915;53.254;6.598;2023-08-21T03:37:08;9.30;;;3.60;;
51883;SDS011;37915;53.254;6.598;2023-08-21T03:39:34;9.38;;;3.05;;
51883;SDS011;37915;53.254;6.598;2023-08-21T03:42:00;8.20;;;3.17;;
51883;SDS011;37915;53.254;6.598;2023-08-21T03:44:26;7.75;;;2.63;;
51883;SDS011;37915;53.254;6.598;2023-08-21T03:46:52;9.07;;;3.65;;
51883;SDS011;37915;53.254;6.598;2023-08-21T03:49:18;9.15;;;2.85;;
51883;SDS011;37915;53.254;6.598;2023-08-21T03:51:44;8.23;;;2.78;;
51883;SDS011;37915;53.254;6.598;2023-08-21T03:54:10;10.18;;;3.00;;
51883;SDS011;37915;53.254;6.598;2023-08-21T03:56:36;7.05;;;2.78;;
51883;SDS011;37915;53.254;6.598;2023-08-21T03:59:02;4.65;;;2.72;;
51883;SDS011;37915;53.254;6.598;2023-08-21T04:01:28;6.70;;;2.78;;
51883;SDS011;37915;53.254;6.598;2023-08-21T04:03:54;7.57;;;2.60;;
51883;SDS011;37915;53.254;6.598;2023-08-21T04:06:20;8.88;;;3.25;;
51883;SDS011;37915;53.254;6.598;2023-08-21T04:08:47;10.20;;;2.95;;
51883;SDS011;37915;53.254;6.598;2023-08-21T04:11:13;7.55;;;2.60;;
51883;SDS011;37915;53.254;6.598;2023-08-21T04:13:39;6.07;;;2.60;;
51883;SDS011;37915;53.254;6.598;2023-08-21T04:16:05;5.72;;;2.67;;
51883;SDS011;37915;53.254;6.598;2023-08-21T04:18:31;8.52;;;3.40;;
51883;SDS011;37915;53.254;6.598;2023-08-21T04:20:57;6.82;;;3.00;;
51883;SDS011;37915;53.254;6.598;2023-08-21T04:23:23;7.85;;;3.10;;
51883;SDS011;37915;53.254;6.598;2023-08-21T04:25:49;9.32;;;3.40;;
51883;SDS011;37915;53.254;6.598;2023-08-21T04:28:15;7.80;;;3.25;;
51883;SDS011;37915;53.254;6.598;2023-08-21T04:30:41;6.72;;;2.92;;
51883;SDS011;37915;53.254;6.598;2023-08-21T04:33:07;11.60;;;3.92;;
51883;SDS011;37915;53.254;6.598;2023-08-21T04:35:37;8.30;;;3.28;;
51883;SDS011;37915;53.254;6.598;2023-08-21T04:38:03;8.10;;;2.90;;
51883;SDS011;37915;53.254;6.598;2023-08-21T04:40:29;10.85;;;3.33;;
51883;SDS011;37915;53.254;6.598;2023-08-21T04:42:56;6.47;;;3.08;;
51883;SDS011;37915;53.254;6.598;2023-08-21T04:45:22;7.32;;;3.13;;
51883;SDS011;37915;53.254;6.598;2023-08-21T04:47:48;5.93;;;2.47;;
51883;SDS011;37915;53.254;6.598;2023-08-21T04:50:14;9.55;;;3.45;;
51883;SDS011;37915;53.254;6.598;2023-08-21T04:52:40;7.85;;;3.00;;
51883;SDS011;37915;53.254;6.598;2023-08-21T04:55:07;8.27;;;3.42;;
51883;SDS011;37915;53.254;6.598;2023-08-21T04:57:33;9.45;;;3.60;;
51883;SDS011;37915;53.254;6.598;2023-08-21T04:59:59;8.27;;;3.63;;
51883;SDS011;37915;53.254;6.598;2023-08-21T05:02:25;7.75;;;3.60;;
51883;SDS011;37915;53.254;6.598;2023-08-21T05:04:51;9.13;;;3.97;;
51883;SDS011;37915;53.254;6.598;2023-08-21T05:07:17;9.55;;;3.03;;
51883;SDS011;37915;53.254;6.598;2023-08-21T05:09:43;8.95;;;3.22;;
51883;SDS011;37915;53.254;6.598;2023-08-21T05:12:09;10.60;;;3.17;;
51883;SDS011;37915;53.254;6.598;2023-08-21T05:14:35;9.15;;;3.67;;
51883;SDS011;37915;53.254;6.598;2023-08-21T05:17:02;8.25;;;2.95;;
51883;SDS011;37915;53.254;6.598;2023-08-21T05:19:28;4.85;;;2.80;;
51883;SDS011;37915;53.254;6.598;2023-08-21T05:21:54;6.53;;;2.72;;
51883;SDS011;37915;53.254;6.598;2023-08-21T05:24:20;6.63;;;3.10;;
51883;SDS011;37915;53.254;6.598;2023-08-21T05:26:46;9.75;;;3.67;;
51883;SDS011;37915;53.254;6.598;2023-08-21T05:29:12;7.30;;;3.47;;
51883;SDS011;37915;53.254;6.598;2023-08-21T05:31:38;13.23;;;3.65;;
51883;SDS011;37915;53.254;6.598;2023-08-21T05:34:04;8.75;;;3.50;;
51883;SDS011;37915;53.254;6.598;2023-08-21T05:36:30;9.93;;;4.07;;
51883;SDS011;37915;53.254;6.598;2023-08-21T05:38:57;9.10;;;3.50;;
51883;SDS011;37915;53.254;6.598;2023-08-21T05:41:23;6.25;;;3.17;;
51883;SDS011;37915;53.254;6.598;2023-08-21T05:43:49;8.25;;;3.40;;
51883;SDS011;37915;53.254;6.598;2023-08-21T05:46:15;10.80;;;3.80;;
51883;SDS011;37915;53.254;6.598;2023-08-21T05:48:41;9.25;;;3.17;;
51883;SDS011;37915;53.254;6.598;2023-08-21T05:51:07;12.00;;;3.30;;
51883;SDS011;37915;53.254;6.598;2023-08-21T05:53:33;10.88;;;4.35;;
51883;SDS011;37915;53.254;6.598;2023-08-21T05:55:59;8.00;;;3.03;;
51883;SDS011;37915;53.254;6.598;2023-08-21T05:58:25;7.40;;;2.63;;
51883;SDS011;37915;53.254;6.598;2023-08-21T06:00:55;5.53;;;2.50;;
51883;SDS011;37915;53.254;6.598;2023-08-21T06:03:21;12.77;;;2.90;;
51883;SDS011;37915;53.254;6.598;2023-08-21T06:05:47;8.82;;;2.65;;
51883;SDS011;37915;53.254;6.598;2023-08-21T06:08:14;5.53;;;2.88;;
51883;SDS011;37915;53.254;6.598;2023-08-21T06:10:40;7.43;;;2.90;;
51883;SDS011;37915;53.254;6.598;2023-08-21T06:13:06;7.43;;;2.90;;
51883;SDS011;37915;53.254;6.598;2023-08-21T06:15:32;7.22;;;2.85;;
51883;SDS011;37915;53.254;6.598;2023-08-21T06:17:58;9.40;;;3.20;;
51883;SDS011;37915;53.254;6.598;2023-08-21T06:20:25;8.50;;;3.10;;
51883;SDS011;37915;53.254;6.598;2023-08-21T06:22:51;7.68;;;3.38;;
51883;SDS011;37915;53.254;6.598;2023-08-21T06:25:17;13.77;;;3.42;;
51883;SDS011;37915;53.254;6.598;2023-08-21T06:27:44;10.52;;;3.10;;
51883;SDS011;37915;53.254;6.598;2023-08-21T06:30:10;8.68;;;2.67;;
51883;SDS011;37915;53.254;6.598;2023-08-21T06:32:36;9.32;;;3.50;;
51883;SDS011;37915;53.254;6.598;2023-08-21T06:35:02;9.55;;;3.38;;
51883;SDS011;37915;53.254;6.598;2023-08-21T06:37:29;9.15;;;2.92;;
51883;SDS011;37915;53.254;6.598;2023-08-21T06:39:55;6.13;;;2.33;;
51883;SDS011;37915;53.254;6.598;2023-08-21T06:42:21;9.90;;;2.83;;
51883;SDS011;37915;53.254;6.598;2023-08-21T06:44:47;7.40;;;2.10;;
51883;SDS011;37915;53.254;6.598;2023-08-21T06:47:13;5.97;;;1.90;;
51883;SDS011;37915;53.254;6.598;2023-08-21T06:49:39;9.13;;;2.53;;
51883;SDS011;37915;53.254;6.598;2023-08-21T06:52:05;9.40;;;1.92;;
51883;SDS011;37915;53.254;6.598;2023-08-21T06:54:31;6.03;;;1.90;;
51883;SDS011;37915;53.254;6.598;2023-08-21T06:56:57;6.53;;;1.52;;
51883;SDS011;37915;53.254;6.598;2023-08-21T06:59:23;6.22;;;1.60;;
51883;SDS011;37915;53.254;6.598;2023-08-21T07:01:49;6.18;;;1.58;;
51883;SDS011;37915;53.254;6.598;2023-08-21T07:04:16;7.68;;;1.98;;
51883;SDS011;37915;53.254;6.598;2023-08-21T07:06:42;6.00;;;1.90;;
51883;SDS011;37915;53.254;6.598;2023-08-21T07:09:08;5.80;;;1.60;;
51883;SDS011;37915;53.254;6.598;2023-08-21T07:11:35;7.80;;;1.50;;
51883;SDS011;37915;53.254;6.598;2023-08-21T07:14:01;5.13;;;1.60;;
51883;SDS011;37915;53.254;6.598;2023-08-21T07:16:27;7.43;;;1.92;;
51883;SDS011;37915;53.254;6.598;2023-08-21T07:18:53;5.80;;;1.55;;
51883;SDS011;37915;53.254;6.598;2023-08-21T07:21:20;8.48;;;2.42;;
51883;SDS011;37915;53.254;6.598;2023-08-21T07:23:46;7.35;;;2.00;;
51883;SDS011;37915;53.254;6.598;2023-08-21T07:26:12;5.35;;;1.63;;
51883;SDS011;37915;53.254;6.598;2023-08-21T07:28:38;4.70;;;1.55;;
51883;SDS011;37915;53.254;6.598;2023-08-21T07:31:04;5.97;;;1.73;;
51883;SDS011;37915;53.254;6.598;2023-08-21T07:33:30;8.52;;;2.00;;
51883;SDS011;37915;53.254;6.598;2023-08-21T07:35:57;5.55;;;1.55;;
51883;SDS011;37915;53.254;6.598;2023-08-21T07:38:23;4.47;;;1.70;;
51883;SDS011;37915;53.254;6.598;2023-08-21T07:40:49;6.85;;;1.67;;
51883;SDS011;37915;53.254;6.598;2023-08-21T07:43:15;4.57;;;1.92;;
51883;SDS011;37915;53.254;6.598;2023-08-21T07:45:41;6.03;;;1.90;;
51883;SDS011;37915;53.254;6.598;2023-08-21T07:48:07;6.32;;;1.88;;
51883;SDS011;37915;53.254;6.598;2023-08-21T07:50:34;4.28;;;1.40;;
51883;SDS011;37915;53.254;6.598;2023-08-21T07:53:00;7.05;;;1.60;;
51883;SDS011;37915;53.254;6.598;2023-08-21T07:55:27;3.75;;;1.30;;
51883;SDS011;37915;53.254;6.598;2023-08-21T07:57:53;4.05;;;1.52;;
51883;SDS011;37915;53.254;6.598;2023-08-21T08:00:19;5.20;;;1.67;;
51883;SDS011;37915;53.254;6.598;2023-08-21T08:02:45;4.95;;;1.35;;
51883;SDS011;37915;53.254;6.598;2023-08-21T08:05:11;6.30;;;1.50;;
51883;SDS011;37915;53.254;6.598;2023-08-21T08:07:37;5.57;;;1.42;;
51883;SDS011;37915;53.254;6.598;2023-08-21T08:10:04;4.82;;;1.50;;
51883;SDS011;37915;53.254;6.598;2023-08-21T08:12:30;3.95;;;1.30;;
51883;SDS011;37915;53.254;6.598;2023-08-21T08:14:58;5.32;;;1.58;;
51883;SDS011;37915;53.254;6.598;2023-08-21T08:17:24;7.38;;;1.98;;
51883;SDS011;37915;53.254;6.598;2023-08-21T08:19:50;3.53;;;1.25;;
51883;SDS011;37915;53.254;6.598;2023-08-21T08:22:16;6.57;;;1.63;;
51883;SDS011;37915;53.254;6.598;2023-08-21T08:24:42;5.18;;;1.60;;
51883;SDS011;37915;53.254;6.598;2023-08-21T08:27:08;10.30;;;1.70;;
51883;SDS011;37915;53.254;6.598;2023-08-21T08:29:35;6.00;;;1.60;;
51883;SDS011;37915;53.254;6.598;2023-08-21T08:32:01;5.45;;;1.83;;
51883;SDS011;37915;53.254;6.598;2023-08-21T08:34:27;4.53;;;1.40;;
51883;SDS011;37915;53.254;6.598;2023-08-21T08:36:53;3.78;;;1.33;;
51883;SDS011;37915;53.254;6.598;2023-08-21T08:39:19;5.13;;;1.50;;
51883;SDS011;37915;53.254;6.598;2023-08-21T08:41:56;6.10;;;1.60;;
51883;SDS011;37915;53.254;6.598;2023-08-21T08:44:24;5.18;;;1.48;;
51883;SDS011;37915;53.254;6.598;2023-08-21T08:46:53;4.80;;;1.48;;
51883;SDS011;37915;53.254;6.598;2023-08-21T08:49:20;6.78;;;1.40;;
51883;SDS011;37915;53.254;6.598;2023-08-21T08:51:46;4.40;;;1.05;;
51883;SDS011;37915;53.254;6.598;2023-08-21T08:54:14;6.28;;;1.70;;
51883;SDS011;37915;53.254;6.598;2023-08-21T08:56:41;5.07;;;1.83;;
51883;SDS011;37915;53.254;6.598;2023-08-21T08:59:07;4.22;;;1.30;;
51883;SDS011;37915;53.254;6.598;2023-08-21T09:01:34;4.20;;;1.40;;
51883;SDS011;37915;53.254;6.598;2023-08-21T09:04:00;4.32;;;1.33;;
51883;SDS011;37915;53.254;6.598;2023-08-21T09:06:26;6.60;;;1.20;;
51883;SDS011;37915;53.254;6.598;2023-08-21T09:08:54;5.97;;;1.58;;
51883;SDS011;37915;53.254;6.598;2023-08-21T09:11:20;4.32;;;1.20;;
51883;SDS011;37915;53.254;6.598;2023-08-21T09:13:48;8.43;;;1.67;;
51883;SDS011;37915;53.254;6.598;2023-08-21T09:16:14;4.82;;;1.40;;
51883;SDS011;37915;53.254;6.598;2023-08-21T09:18:51;2.60;;;1.23;;
51883;SDS011;37915;53.254;6.598;2023-08-21T09:21:18;3.00;;;1.02;;
51883;SDS011;37915;53.254;6.598;2023-08-21T09:23:44;2.83;;;1.05;;
51883;SDS011;37915;53.254;6.598;2023-08-21T09:26:11;6.78;;;1.55;;
51883;SDS011;37915;53.254;6.598;2023-08-21T09:28:44;6.70;;;1.60;;
51883;SDS011;37915;53.254;6.598;2023-08-21T09:31:10;5.60;;;1.60;;
51883;SDS011;37915;53.254;6.598;2023-08-21T09:33:37;5.47;;;1.33;;
51883;SDS011;37915;53.254;6.598;2023-08-21T09:36:03;4.82;;;1.48;;
51883;SDS011;37915;53.254;6.598;2023-08-21T09:38:38;6.45;;;1.92;;
51883;SDS011;37915;53.254;6.598;2023-08-21T09:43:31;5.50;;;1.42;;
51883;SDS011;37915;53.254;6.598;2023-08-21T09:45:57;4.25;;;1.42;;
51883;SDS011;37915;53.254;6.598;2023-08-21T09:48:23;4.32;;;1.50;;
51883;SDS011;37915;53.254;6.598;2023-08-21T09:50:51;4.47;;;1.20;;
51883;SDS011;37915;53.254;6.598;2023-08-21T09:53:18;3.53;;;1.30;;
51883;SDS011;37915;53.254;6.598;2023-08-21T09:55:45;3.42;;;1.20;;
51883;SDS011;37915;53.254;6.598;2023-08-21T09:58:11;4.50;;;1.73;;
51883;SDS011;37915;53.254;6.598;2023-08-21T10:00:39;4.45;;;1.30;;
51883;SDS011;37915;53.254;6.598;2023-08-21T10:03:07;4.18;;;1.10;;
51883;SDS011;37915;53.254;6.598;2023-08-21T10:05:36;3.72;;;1.67;;
51883;SDS011;37915;53.254;6.598;2023-08-21T10:08:03;4.57;;;1.45;;
51883;SDS011;37915;53.254;6.598;2023-08-21T10:10:34;4.75;;;1.30;;
51883;SDS011;37915;53.254;6.598;2023-08-21T10:13:00;3.78;;;1.20;;
51883;SDS011;37915;53.254;6.598;2023-08-21T10:15:30;3.40;;;1.08;;
51883;SDS011;37915;53.254;6.598;2023-08-21T10:17:57;4.22;;;1.17;;
51883;SDS011;37915;53.254;6.598;2023-08-21T10:20:25;2.50;;;0.82;;
51883;SDS011;37915;53.254;6.598;2023-08-21T10:22:54;3.70;;;1.45;;
51883;SDS011;37915;53.254;6.598;2023-08-21T10:25:21;5.20;;;1.08;;
51883;SDS011;37915;53.254;6.598;2023-08-21T10:27:51;3.83;;;1.08;;
51883;SDS011;37915;53.254;6.598;2023-08-21T10:30:22;5.10;;;1.27;;
51883;SDS011;37915;53.254;6.598;2023-08-21T10:32:49;4.30;;;1.30;;
51883;SDS011;37915;53.254;6.598;2023-08-21T10:35:17;4.22;;;1.20;;
51883;SDS011;37915;53.254;6.598;2023-08-21T10:40:28;4.25;;;1.45;;
51883;SDS011;37915;53.254;6.598;2023-08-21T10:42:55;5.43;;;1.17;;
51883;SDS011;37915;53.254;6.598;2023-08-21T10:45:21;4.05;;;0.95;;
51883;SDS011;37915;53.254;6.598;2023-08-21T10:47:47;6.00;;;1.30;;
51883;SDS011;37915;53.254;6.598;2023-08-21T10:50:15;4.97;;;1.17;;
51883;SDS011;37915;53.254;6.598;2023-08-21T10:52:42;3.42;;;1.08;;
51883;SDS011;37915;53.254;6.598;2023-08-21T10:55:12;3.88;;;1.33;;
51883;SDS011;37915;53.254;6.598;2023-08-21T10:57:38;5.95;;;1.88;;
51883;SDS011;37915;53.254;6.598;2023-08-21T11:00:10;3.75;;;1.60;;
51883;SDS011;37915;53.254;6.598;2023-08-21T11:02:37;6.20;;;1.40;;
51883;SDS011;37915;53.254;6.598;2023-08-21T11:05:04;5.07;;;1.25;;
51883;SDS011;37915;53.254;6.598;2023-08-21T11:07:32;3.85;;;1.23;;
51883;SDS011;37915;53.254;6.598;2023-08-21T11:10:02;4.05;;;1.30;;
51883;SDS011;37915;53.254;6.598;2023-08-21T11:12:28;3.35;;;1.08;;
51883;SDS011;37915;53.254;6.598;2023-08-21T11:14:54;4.30;;;1.33;;
51883;SDS011;37915;53.254;6.598;2023-08-21T11:17:20;6.45;;;1.33;;
51883;SDS011;37915;53.254;6.598;2023-08-21T11:19:48;4.20;;;1.30;;
51883;SDS011;37915;53.254;6.598;2023-08-21T11:22:15;2.85;;;1.00;;
51883;SDS011;37915;53.254;6.598;2023-08-21T11:24:45;3.92;;;1.30;;
51883;SDS011;37915;53.254;6.598;2023-08-21T11:27:13;5.13;;;1.52;;
51883;SDS011;37915;53.254;6.598;2023-08-21T11:29:47;8.65;;;1.42;;
51883;SDS011;37915;53.254;6.598;2023-08-21T11:32:14;2.83;;;1.27;;
51883;SDS011;37915;53.254;6.598;2023-08-21T11:35:14;8.20;;;1.40;;
51883;SDS011;37915;53.254;6.598;2023-08-21T11:37:34;5.75;;;1.50;;
51883;SDS011;37915;53.254;6.598;2023-08-21T11:40:00;6.18;;;1.42;;
51883;SDS011;37915;53.254;6.598;2023-08-21T11:42:33;4.40;;;1.42;;
51883;SDS011;37915;53.254;6.598;2023-08-21T11:45:00;6.15;;;2.47;;
51883;SDS011;37915;53.254;6.598;2023-08-21T11:47:33;4.35;;;1.30;;
51883;SDS011;37915;53.254;6.598;2023-08-21T11:50:06;4.18;;;1.55;;
51883;SDS011;37915;53.254;6.598;2023-08-21T11:52:33;5.95;;;1.50;;
51883;SDS011;37915;53.254;6.598;2023-08-21T11:55:06;5.90;;;1.40;;
51883;SDS011;37915;53.254;6.598;2023-08-21T11:57:32;4.40;;;1.27;;
51883;SDS011;37915;53.254;6.598;2023-08-21T11:59:59;6.25;;;1.85;;
51883;SDS011;37915;53.254;6.598;2023-08-21T12:02:25;4.57;;;1.77;;
51883;SDS011;37915;53.254;6.598;2023-08-21T12:05:15;5.15;;;1.63;;
51883;SDS011;37915;53.254;6.598;2023-08-21T12:07:41;6.82;;;1.50;;
51883;SDS011;37915;53.254;6.598;2023-08-21T12:10:07;4.63;;;1.10;;
51883;SDS011;37915;53.254;6.598;2023-08-21T12:12:33;5.38;;;1.85;;
51883;SDS011;37915;53.254;6.598;2023-08-21T12:14:59;4.28;;;1.38;;
51883;SDS011;37915;53.254;6.598;2023-08-21T12:17:25;2.80;;;1.20;;
51883;SDS011;37915;53.254;6.598;2023-08-21T12:19:51;8.27;;;1.70;;
51883;SDS011;37915;53.254;6.598;2023-08-21T12:22:17;6.30;;;1.70;;
51883;SDS011;37915;53.254;6.598;2023-08-21T12:24:44;4.75;;;1.38;;
51883;SDS011;37915;53.254;6.598;2023-08-21T12:27:10;5.13;;;1.05;;
51883;SDS011;37915;53.254;6.598;2023-08-21T12:29:36;4.32;;;1.23;;
51883;SDS011;37915;53.254;6.598;2023-08-21T12:32:02;4.75;;;1.08;;
51883;SDS011;37915;53.254;6.598;2023-08-21T12:34:28;3.53;;;0.90;;
51883;SDS011;37915;53.254;6.598;2023-08-21T12:36:54;4.85;;;1.30;;
51883;SDS011;37915;53.254;6.598;2023-08-21T12:39:20;3.78;;;1.30;;
51883;SDS011;37915;53.254;6.598;2023-08-21T12:41:47;5.22;;;1.42;;
51883;SDS011;37915;53.254;6.598;2023-08-21T12:44:13;3.10;;;1.08;;
51883;SDS011;37915;53.254;6.598;2023-08-21T12:46:39;5.03;;;1.33;;
51883;SDS011;37915;53.254;6.598;2023-08-21T12:49:06;4.60;;;1.30;;
51883;SDS011;37915;53.254;6.598;2023-08-21T12:51:32;5.07;;;1.40;;
51883;SDS011;37915;53.254;6.598;2023-08-21T12:53:58;4.55;;;1.38;;
51883;SDS011;37915;53.254;6.598;2023-08-21T12:56:24;3.90;;;1.30;;
51883;SDS011;37915;53.254;6.598;2023-08-21T12:58:50;5.82;;;1.60;;
51883;SDS011;37915;53.254;6.598;2023-08-21T13:01:17;4.97;;;1.52;;
51883;SDS011;37915;53.254;6.598;2023-08-21T13:03:43;4.90;;;1.50;;
51883;SDS011;37915;53.254;6.598;2023-08-21T13:06:10;6.43;;;1.48;;
51883;SDS011;37915;53.254;6.598;2023-08-21T13:08:36;3.35;;;1.17;;
51883;SDS011;37915;53.254;6.598;2023-08-21T13:11:02;7.57;;;2.55;;
51883;SDS011;37915;53.254;6.598;2023-08-21T13:13:30;5.75;;;1.58;;
51883;SDS011;37915;53.254;6.598;2023-08-21T13:15:56;5.32;;;1.73;;
51883;SDS011;37915;53.254;6.598;2023-08-21T13:18:22;3.97;;;1.20;;
51883;SDS011;37915;53.254;6.598;2023-08-21T13:20:48;7.03;;;1.80;;
51883;SDS011;37915;53.254;6.598;2023-08-21T13:23:14;4.40;;;1.33;;
51883;SDS011;37915;53.254;6.598;2023-08-21T13:25:40;5.80;;;1.33;;
51883;SDS011;37915;53.254;6.598;2023-08-21T13:28:06;6.18;;;1.58;;
51883;SDS011;37915;53.254;6.598;2023-08-21T13:30:32;3.90;;;1.20;;
51883;SDS011;37915;53.254;6.598;2023-08-21T13:32:58;5.32;;;1.75;;
51883;SDS011;37915;53.254;6.598;2023-08-21T13:35:24;5.10;;;1.20;;
51883;SDS011;37915;53.254;6.598;2023-08-21T13:37:50;4.10;;;1.02;;
51883;SDS011;37915;53.254;6.598;2023-08-21T13:40:17;4.88;;;1.25;;
51883;SDS011;37915;53.254;6.598;2023-08-21T13:42:44;5.47;;;1.27;;
51883;SDS011;37915;53.254;6.598;2023-08-21T13:45:11;9.13;;;1.42;;
51883;SDS011;37915;53.254;6.598;2023-08-21T13:47:41;6.65;;;1.42;;
51883;SDS011;37915;53.254;6.598;2023-08-21T13:50:07;4.93;;;1.30;;
51883;SDS011;37915;53.254;6.598;2023-08-21T13:52:34;5.32;;;1.30;;
51883;SDS011;37915;53.254;6.598;2023-08-21T13:55:00;6.43;;;1.20;;
51883;SDS011;37915;53.254;6.598;2023-08-21T13:57:27;5.45;;;1.58;;
51883;SDS011;37915;53.254;6.598;2023-08-21T13:59:54;4.70;;;1.17;;
51883;SDS011;37915;53.254;6.598;2023-08-21T14:02:20;5.45;;;1.25;;
51883;SDS011;37915;53.254;6.598;2023-08-21T14:04:48;3.47;;;1.33;;
51883;SDS011;37915;53.254;6.598;2023-08-21T14:07:14;3.58;;;1.20;;
51883;SDS011;37915;53.254;6.598;2023-08-21T14:09:40;2.60;;;0.98;;
51883;SDS011;37915;53.254;6.598;2023-08-21T14:12:06;4.72;;;1.10;;
51883;SDS011;37915;53.254;6.598;2023-08-21T14:14:32;4.82;;;1.35;;
51883;SDS011;37915;53.254;6.598;2023-08-21T14:16:58;3.95;;;0.95;;
51883;SDS011;37915;53.254;6.598;2023-08-21T14:19:25;3.13;;;1.13;;
51883;SDS011;37915;53.254;6.598;2023-08-21T14:21:51;6.18;;;1.02;;
51883;SDS011;37915;53.254;6.598;2023-08-21T14:24:17;4.50;;;0.95;;
51883;SDS011;37915;53.254;6.598;2023-08-21T14:26:43;4.00;;;0.80;;
51883;SDS011;37915;53.254;6.598;2023-08-21T14:29:09;5.03;;;0.90;;
51883;SDS011;37915;53.254;6.598;2023-08-21T14:31:35;3.55;;;0.82;;
51883;SDS011;37915;53.254;6.598;2023-08-21T14:34:01;5.05;;;1.08;;
51883;SDS011;37915;53.254;6.598;2023-08-21T14:36:27;3.35;;;1.08;;
51883;SDS011;37915;53.254;6.598;2023-08-21T14:38:53;4.47;;;1.20;;
51883;SDS011;37915;53.254;6.598;2023-08-21T14:41:19;3.38;;;0.85;;
51883;SDS011;37915;53.254;6.598;2023-08-21T14:43:47;4.22;;;1.17;;
51883;SDS011;37915;53.254;6.598;2023-08-21T14:46:13;3.95;;;1.00;;
51883;SDS011;37915;53.254;6.598;2023-08-21T14:48:40;5.65;;;1.80;;
51883;SDS011;37915;53.254;6.598;2023-08-21T14:51:06;4.57;;;1.70;;